Terminal Aerodrome Forecast
Issued by NWS Knoxville/Tri Cities, TN

Home | Current Version | Previous Version | Text Only | Print | Product List | Glossary On
Versions: 1 2 3 4 5 6 7 8 9 10 11 12 13 14 15
000
FTUS44 KMRX 192320
TAFTRI
TAF
KTRI 192320Z 2000/2024 24004KT P6SM FEW250
     FM200900 00000KT P6SM OVC030
      TEMPO 2014/2018 BKN020
     FM201800 24005KT P6SM OVC030=

USA.gov is the U.S. government's official web portal to all federal, state and local government web resources and services.